Amunt
Inicio > meteoXarxa
Fes-te'n soci

METEOXARXA

la Serra d′en Galceran
Ubicació
Comarca la Plana Alta
Altitud (msnm) 748
Posició geogràfica 40° 16' 10.38" N, 00° 1' 7.77" W
Model Davis Vantage Pro
Presa de dades
Font de les dades Universitat Jaume I de Castelló
Estadístiques. Resum
Data Temperatura (ºC) Humitat (%) Pressió (hPa) Vent (km/h) Precipit. (mm)
Mínima Mitjana Màxima Mínima Mitjana Màxima Mínima Mitjana Màxima Predom. Mitjana Ràfega màxima Total Dies de pluja
Mínima Mitjana Màxima Mínima Mitjana Màxima
Últimes dades diàries
24-02-2017 5,3     8,8     11,6 N 18,2 64,4 0,8  
23-02-2017 9,6     12,6     16,1 N 4,0 27,4 0,0  
22-02-2017 10,2     12,4     14,8 N 4,3 20,9 0,0  
21-02-2017 8,2     10,8     14,4 N 3,4 17,7 0,0  
20-02-2017 5,6     8,3     11,4 N 5,6 25,7 0,0  
19-02-2017 4,4     7,2     10,1 N 3,5 22,5 0,0  
18-02-2017 5,7     8,4     11,5 N 3,4 19,3 0,0  
17-02-2017 6,4     8,3     11,8 N 2,6 17,7 0,0  
16-02-2017 6,4     7,8     10,2 N 2,9 17,7 0,0  
15-02-2017 6,3     8,3     11,6 N 3,9 25,7 0,0  
14-02-2017 7,3     9,2     11,7 N 5,8 32,2 0,0  
13-02-2017 7,2     8,6     10,8 N 7,9 53,1 5,8  
12-02-2017 6,8     7,7     8,8 N 6,3 32,2 0,3  
11-02-2017 3,5     5,8     7,3 N 7,7 40,2 0,3  
10-02-2017 3,7     4,9     7,1 N 4,3 20,9 0,0  
09-02-2017 2,7     5,1     10,3 N 14,6 72,4 0,0  
08-02-2017 3,1     4,4     6,6 N 43,6 135,2 0,3  
07-02-2017 4,4     11,7     14,3 N 22,5 90,1 0,0  
06-02-2017 5,3     9,6     13,0 N 41,4 146,5 0,0  
05-02-2017 5,4     8,9     13,1 N 42,3 128,7 0,8  
04-02-2017 9,2     12,8     15,7 N 13,8 69,2 0,0  
03-02-2017 6,6     10,3     14,3 N 14,6 62,8 0,3  
02-02-2017 6,9     8,9     10,7 N 9,0 40,2 1,5  
01-02-2017 9,6     12,2     14,8 N 6,1 25,7 0,0  
31-01-2017 9,1     10,9     12,7 N 2,9 14,5 0,0  
30-01-2017 9,4     10,9     12,6 N 3,1 24,1 0,0  
29-01-2017 5,2     7,2     10,2 N 8,9 37,0 0,0  
28-01-2017 4,2     6,1     8,2 N 23,7 85,3 0,5  
27-01-2017 4,0     5,8     8,7 N 8,4 43,5 13,7  
26-01-2017 1,7     3,2     4,8 N 3,5 20,9 0,0  
25-01-2017 3,0     5,8     8,2 N 5,6 24,1 0,0  
24-01-2017 3,9     6,3     8,9 N 21,9 78,9 0,0  
Dades del mes en curs (actualitzades fins l'últim dia disponible)
02/2017 2,7 6,2 10,2 8,9 6,6 11,8 16,1   12,2 146,5 10,1  
Últimes dades mensuals
01/2017 -3,7 4,1 10,3 6,3 2,3 9,1 16,1 15,4 115,9 136,5 7
12/2016 3,2 7,1 10,1 9,1 5,8 11,3 17,2 7,1 66,0 0,3 1
11/2016 3,6 8,0 13,5 10,5 7,5 13,1 19,4 11,0 86,9 56,1 11
10/2016 10,2 13,6 17,2 15,7 12,7 18,5 23,3 4,2 51,5 40,8 10
09/2016 11,9 16,6 26,8 19,3 17,7 22,6 33,7 7,3 72,4 32,9 5
08/2016 14,8 17,9 20,1 21,2 20,3 24,9 27,9 5,6 59,5 35,1 5
07/2016 12,8 18,8 23,4 22,2 20,9 25,9 30,8 6,8 67,6 0,9 3
06/2016 10,8 16,0 20,7 19,3 18,5 22,9 26,7 7,9 69,2 1,8 4
03/2016 2,2 5,6 12,2 8,4 5,3 11,6 17,9 15,2 95,0 54,5 12
02/2016 -0,4 5,9 13,2 8,7 5,0 12,2 18,9 16,1 115,9 9,1 8
01/2016 1,3 6,6 11,5 9,3 5,0 12,2 17,1 11,6 95,0 4,0 6
12/2015 5,8 8,9 14,6 11,0 9,6 13,5 17,7 4,0 37,0 0,9 3
11/2015 0,9 10,6 14,8 12,9 6,4 15,4 21,4 11,5 83,7 142,8 3
Dades de l'any en curs (actualitzades fins l'últim dia disponible)
2017 -3,7 5,0 10,3 7,4 2,3 10,2 16,1   14,0 146,5 146,6  
Últimes dades anuals